Time;durP1;ratioP1;P1;durP2;ratioP2;P2;SDS_P1;SDS_P2;PMS_P1;PMS_P2;Temp;Humidity;BMP_temperature;BMP_pressure;BME280_temperature;BME280_humidity;BME280_pressure;Samples;Min_cycle;Max_cycle;Signal;HPM_P1;HPM_P2
2022/08/22 00:01:01;;;;;;;1.30;0.20;;;20.20;92.40;;;;;;10242425;28;20384;-65
2022/08/22 00:06:23;;;;;;;1.65;0.80;;;20.10;92.20;;;;;;10254178;28;20053;-65
2022/08/22 00:11:50;;;;;;;2.53;0.20;;;20.10;92.50;;;;;;10241008;28;20047;-65
2022/08/22 00:16:52;;;;;;;3.28;0.30;;;20.00;92.60;;;;;;10236879;28;20051;-64
2022/08/22 00:22:24;;;;;;;2.72;0.20;;;20.00;92.90;;;;;;10253603;28;20058;-64
2022/08/22 00:27:34;;;;;;;2.17;0.25;;;20.00;92.90;;;;;;10249561;28;20070;-65
2022/08/22 00:32:49;;;;;;;3.15;0.20;;;19.90;93.20;;;;;;10250908;28;20046;-64
2022/08/22 00:38:25;;;;;;;0.50;0.20;;;19.90;93.40;;;;;;10250198;28;20043;-65
2022/08/22 00:44:00;;;;;;;0.50;0.20;;;19.80;93.60;;;;;;10249829;28;20043;-65
2022/08/22 00:49:28;;;;;;;1.75;0.30;;;19.80;93.80;;;;;;10244401;28;20053;-65
2022/08/22 00:54:33;;;;;;;1.67;0.30;;;19.80;94.00;;;;;;10243962;28;20062;-65
2022/08/22 01:00:12;;;;;;;0.88;0.30;;;19.70;94.30;;;;;;10246110;28;20059;-65
2022/08/22 01:05:56;;;;;;;2.13;0.30;;;19.60;94.50;;;;;;10243136;28;20047;-65
2022/08/22 01:11:11;;;;;;;4.15;0.30;;;19.60;94.60;;;;;;10242018;28;20489;-65
2022/08/22 01:16:26;;;;;;;2.17;0.30;;;19.50;94.60;;;;;;10239215;28;20176;-65
2022/08/22 01:21:44;;;;;;;3.00;0.40;;;19.40;94.90;;;;;;10242560;28;20482;-65
2022/08/22 01:27:02;;;;;;;2.55;0.40;;;19.40;95.20;;;;;;10249674;28;20043;-65
2022/08/22 01:32:27;;;;;;;3.10;0.40;;;19.30;95.60;;;;;;10243085;28;20047;-65
2022/08/22 01:37:50;;;;;;;2.13;0.30;;;19.20;95.80;;;;;;10238995;28;20051;-64
2022/08/22 01:42:55;;;;;;;4.90;0.30;;;19.20;96.00;;;;;;10253918;28;20374;-65
2022/08/22 01:48:10;;;;;;;1.67;0.40;;;19.10;96.10;;;;;;10249820;28;20047;-65
2022/08/22 01:53:24;;;;;;;3.08;0.70;;;19.10;96.60;;;;;;10241739;28;20098;-65
2022/08/22 01:58:32;;;;;;;3.53;0.20;;;19.00;96.70;;;;;;10243767;28;20058;-65
2022/08/22 02:03:57;;;;;;;0.88;0.28;;;19.00;96.90;;;;;;10252736;28;20047;-65
2022/08/22 02:09:09;;;;;;;4.28;0.30;;;18.90;97.00;;;;;;10250796;28;20054;-65
2022/08/22 02:14:26;;;;;;;1.27;0.28;;;18.90;97.20;;;;;;10246460;28;20057;-65
2022/08/22 02:19:43;;;;;;;4.57;0.40;;;18.90;97.40;;;;;;10248731;28;20387;-65
2022/08/22 02:24:51;;;;;;;4.13;0.40;;;18.70;97.70;;;;;;10256649;28;20046;-65
2022/08/22 02:30:10;;;;;;;4.13;0.30;;;18.60;98.30;;;;;;10253173;28;20054;-65
2022/08/22 02:35:11;;;;;;;0.20;0.17;;;18.50;98.40;;;;;;10256652;28;20447;-65
2022/08/22 02:40:29;;;;;;;1.90;0.30;;;18.40;98.80;;;;;;10244264;28;20050;-65
2022/08/22 02:45:47;;;;;;;6.15;0.30;;;18.30;99.20;;;;;;10260563;28;20128;-65
2022/08/22 02:51:01;;;;;;;3.60;0.30;;;18.30;99.50;;;;;;10253317;28;20486;-65
2022/08/22 02:56:18;;;;;;;4.78;0.47;;;18.10;99.80;;;;;;10250146;28;20047;-65
2022/08/22 03:01:28;;;;;;;3.70;0.30;;;18.00;99.90;;;;;;10251099;28;20058;-64
2022/08/22 03:06:40;;;;;;;1.30;0.30;;;17.90;99.90;;;;;;10254338;28;20051;-64
2022/08/22 03:11:48;;;;;;;1.25;0.40;;;17.80;99.90;;;;;;10257715;28;20118;-64
2022/08/22 03:17:01;;;;;;;3.97;0.30;;;17.70;99.90;;;;;;10234096;28;20552;-64
2022/08/22 03:22:13;;;;;;;2.05;0.32;;;17.70;99.90;;;;;;10262487;28;20179;-65
2022/08/22 03:27:23;;;;;;;1.23;0.30;;;17.50;99.90;;;;;;10250155;28;20062;-65
2022/08/22 03:32:50;;;;;;;0.50;0.30;;;17.40;99.90;;;;;;10245323;28;20043;-65
2022/08/22 03:38:07;;;;;;;0.77;0.30;;;17.40;99.90;;;;;;10249910;28;20437;-65
2022/08/22 03:43:29;;;;;;;1.40;0.30;;;17.30;99.90;;;;;;10247945;28;20054;-65
2022/08/22 03:48:39;;;;;;;7.57;0.68;;;17.20;99.90;;;;;;10231045;28;20560;-65
2022/08/22 03:54:08;;;;;;;4.13;0.43;;;17.10;99.90;;;;;;10242894;28;20057;-65
2022/08/22 03:59:27;;;;;;;3.90;0.75;;;17.10;99.90;;;;;;10244370;28;20411;-65
2022/08/22 04:05:03;;;;;;;1.40;0.90;;;17.00;99.90;;;;;;10250338;28;20038;-64
2022/08/22 04:10:37;;;;;;;2.58;0.38;;;16.90;99.90;;;;;;10242738;28;20055;-64
2022/08/22 04:15:39;;;;;;;3.72;0.40;;;16.90;99.90;;;;;;10249082;28;20047;-64
2022/08/22 04:21:19;;;;;;;0.77;0.40;;;16.90;99.90;;;;;;10232387;28;20047;-64
2022/08/22 04:26:41;;;;;;;0.73;0.20;;;16.80;99.90;;;;;;10249685;28;20059;-64
2022/08/22 04:32:17;;;;;;;4.78;0.40;;;16.70;99.90;;;;;;10252015;28;20099;-63
2022/08/22 04:37:24;;;;;;;0.70;0.30;;;16.60;99.90;;;;;;10244132;28;20042;-63
2022/08/22 04:42:35;;;;;;;2.50;0.30;;;16.50;99.90;;;;;;10249669;28;20075;-63
2022/08/22 04:47:55;;;;;;;0.50;0.30;;;16.40;99.90;;;;;;10251265;28;20088;-63
2022/08/22 04:53:22;;;;;;;1.50;0.40;;;16.40;99.90;;;;;;10252427;28;20169;-63
2022/08/22 04:58:43;;;;;;;0.40;0.30;;;16.30;99.90;;;;;;10246496;28;20192;-63
2022/08/22 05:03:56;;;;;;;2.72;0.40;;;16.20;99.90;;;;;;10252518;28;20066;-63
2022/08/22 05:09:03;;;;;;;3.08;0.35;;;16.20;99.90;;;;;;10250619;28;20047;-63
2022/08/22 05:14:20;;;;;;;2.40;0.50;;;16.20;99.90;;;;;;10251572;28;20113;-63
2022/08/22 05:19:30;;;;;;;1.20;0.60;;;16.30;99.90;;;;;;10251841;28;20664;-63
2022/08/22 05:24:38;;;;;;;3.13;0.35;;;16.30;99.90;;;;;;10226424;28;20043;-63
2022/08/22 05:29:44;;;;;;;3.58;0.43;;;16.40;99.90;;;;;;10248203;28;20047;-64
2022/08/22 05:34:49;;;;;;;1.83;0.50;;;16.40;99.90;;;;;;10256557;28;20043;-64
2022/08/22 05:39:57;;;;;;;4.05;0.43;;;16.50;99.90;;;;;;10240944;28;20593;-64
2022/08/22 05:45:01;;;;;;;1.00;0.40;;;16.50;99.90;;;;;;10248067;28;20401;-64
2022/08/22 05:50:16;;;;;;;1.10;0.35;;;16.60;99.90;;;;;;10254518;28;20394;-64
2022/08/22 05:55:51;;;;;;;3.80;0.32;;;16.70;99.90;;;;;;10247815;28;20105;-64
2022/08/22 06:01:06;;;;;;;1.13;0.38;;;16.80;99.90;;;;;;10258691;28;20094;-64
2022/08/22 06:06:15;;;;;;;4.22;0.30;;;17.00;99.90;;;;;;10252866;28;20110;-64
2022/08/22 06:11:24;;;;;;;6.28;0.50;;;17.20;99.90;;;;;;10254234;28;20050;-64
2022/08/22 06:16:49;;;;;;;0.98;0.32;;;17.30;99.90;;;;;;10258376;28;20057;-64
2022/08/22 06:21:54;;;;;;;1.52;0.38;;;17.60;99.90;;;;;;10256690;28;20077;-64
2022/08/22 06:27:02;;;;;;;2.47;0.43;;;17.80;99.90;;;;;;10254109;28;20043;-64
2022/08/22 06:32:21;;;;;;;0.80;0.30;;;18.10;99.90;;;;;;10255932;28;20105;-64
2022/08/22 06:37:46;;;;;;;8.82;0.50;;;18.30;99.90;;;;;;10259043;28;20138;-64
2022/08/22 06:42:50;;;;;;;3.63;0.30;;;18.60;99.90;;;;;;10259484;28;20375;-64
2022/08/22 06:48:11;;;;;;;6.65;0.40;;;18.80;99.90;;;;;;10258818;28;20059;-64
2022/08/22 06:53:18;;;;;;;2.22;0.40;;;19.20;99.90;;;;;;10246256;28;20052;-64
2022/08/22 06:58:33;;;;;;;1.80;0.40;;;19.40;99.90;;;;;;10260460;28;20046;-64
2022/08/22 07:03:40;;;;;;;1.67;0.40;;;19.60;99.90;;;;;;10261297;28;20110;-64
2022/08/22 07:08:42;;;;;;;3.63;0.50;;;19.90;99.90;;;;;;10257594;28;20050;-64
2022/08/22 07:13:56;;;;;;;4.50;0.40;;;20.30;99.90;;;;;;10264096;28;20069;-64
2022/08/22 07:18:58;;;;;;;5.15;0.45;;;20.50;99.90;;;;;;10258207;28;20130;-64
2022/08/22 07:24:00;;;;;;;1.88;0.50;;;20.70;99.90;;;;;;10259340;28;20498;-64
2022/08/22 07:29:10;;;;;;;1.77;0.60;;;20.90;99.90;;;;;;10242691;28;20808;-65
2022/08/22 07:34:39;;;;;;;1.88;0.55;;;21.00;99.90;;;;;;10238572;28;20047;-64
2022/08/22 07:40:07;;;;;;;2.03;0.50;;;21.20;99.90;;;;;;10248380;28;20054;-64
2022/08/22 07:45:19;;;;;;;2.63;0.77;;;21.40;99.90;;;;;;10259316;28;20498;-65
2022/08/22 07:50:26;;;;;;;3.03;0.57;;;21.50;99.90;;;;;;10254099;28;20138;-64
2022/08/22 07:55:28;;;;;;;4.78;0.50;;;21.60;99.90;;;;;;10255487;28;20051;-64
2022/08/22 08:00:31;;;;;;;1.40;0.60;;;21.70;99.90;;;;;;10258040;28;20509;-64
2022/08/22 08:05:35;;;;;;;4.78;0.82;;;21.70;99.90;;;;;;10254652;28;20100;-65
2022/08/22 08:10:39;;;;;;;0.90;0.50;;;21.80;99.90;;;;;;10239248;28;20105;-64
2022/08/22 08:15:44;;;;;;;1.02;0.65;;;21.90;99.90;;;;;;10251341;28;20043;-64
2022/08/22 08:20:57;;;;;;;4.70;0.75;;;22.10;99.90;;;;;;10247464;28;20118;-64
2022/08/22 08:26:09;;;;;;;1.50;0.70;;;22.30;99.90;;;;;;10255806;28;20051;-64
2022/08/22 08:31:16;;;;;;;1.50;0.70;;;22.50;99.90;;;;;;10248459;28;20272;-64
2022/08/22 08:36:30;;;;;;;2.15;0.80;;;22.70;99.90;;;;;;10253666;28;20449;-64
2022/08/22 08:41:37;;;;;;;3.38;0.70;;;22.90;99.90;;;;;;10236242;28;20043;-64
2022/08/22 08:46:53;;;;;;;1.40;0.98;;;23.10;99.90;;;;;;10241863;28;20106;-66
2022/08/22 08:52:09;;;;;;;2.60;0.93;;;23.30;99.90;;;;;;10250399;28;20050;-66
2022/08/22 08:57:45;;;;;;;3.17;0.85;;;23.40;99.90;;;;;;10250827;28;20047;-66
2022/08/22 09:03:09;;;;;;;2.87;0.90;;;23.60;99.90;;;;;;10247668;28;20051;-66
2022/08/22 09:08:29;;;;;;;1.35;0.73;;;23.80;99.90;;;;;;10243954;28;21028;-66
2022/08/22 09:13:50;;;;;;;5.10;1.07;;;24.00;99.90;;;;;;10247676;28;20109;-66
2022/08/22 09:19:21;;;;;;;8.10;1.45;;;24.20;99.90;;;;;;10245126;28;20062;-67
2022/08/22 09:24:47;;;;;;;2.97;1.05;;;24.40;99.40;;;;;;10247481;28;20469;-72
2022/08/22 09:29:56;;;;;;;3.28;1.00;;;24.90;98.20;;;;;;10243783;28;20058;-67
2022/08/22 09:35:37;;;;;;;2.78;0.80;;;25.10;98.10;;;;;;10245551;28;20103;-66
2022/08/22 09:41:10;;;;;;;1.73;1.15;;;25.20;97.80;;;;;;10248413;28;20054;-66
2022/08/22 09:46:31;;;;;;;1.20;0.82;;;25.30;96.90;;;;;;10253671;28;20320;-66
2022/08/22 09:51:46;;;;;;;2.42;0.82;;;25.60;95.70;;;;;;10253574;28;20134;-66
2022/08/22 09:57:13;;;;;;;1.38;0.90;;;25.90;95.30;;;;;;10247085;28;20502;-66
2022/08/22 10:02:37;;;;;;;3.15;0.80;;;26.10;94.90;;;;;;10244746;28;20070;-66
2022/08/22 10:08:10;;;;;;;4.05;0.80;;;26.40;94.20;;;;;;10242265;28;20405;-66
2022/08/22 10:13:43;;;;;;;2.83;0.70;;;26.70;93.10;;;;;;10243788;28;20048;-66
2022/08/22 10:19:00;;;;;;;1.08;0.63;;;27.00;92.70;;;;;;10230797;28;20054;-67
2022/08/22 10:24:42;;;;;;;1.10;0.43;;;27.20;92.10;;;;;;10249730;28;20060;-67
2022/08/22 10:30:05;;;;;;;1.67;0.80;;;27.50;89.80;;;;;;10252891;28;20051;-67
2022/08/22 10:35:27;;;;;;;2.10;0.47;;;28.30;88.40;;;;;;10249929;28;20051;-68
2022/08/22 10:40:59;;;;;;;3.22;0.60;;;28.70;82.10;;;;;;10269530;28;20054;-68
2022/08/22 10:46:20;;;;;;;5.97;0.90;;;29.10;81.40;;;;;;10259296;28;20070;-68
2022/08/22 10:51:43;;;;;;;2.67;0.68;;;29.50;80.60;;;;;;10250219;28;20043;-67
2022/08/22 10:56:45;;;;;;;2.95;1.15;;;29.30;81.90;;;;;;10255463;28;20105;-68
2022/08/22 11:02:07;;;;;;;3.40;0.77;;;29.40;77.60;;;;;;10255517;28;20047;-67
2022/08/22 11:07:35;;;;;;;2.45;0.45;;;29.50;76.40;;;;;;10260022;28;20051;-69
2022/08/22 11:12:49;;;;;;;2.45;0.55;;;29.30;76.80;;;;;;10255116;28;20434;-69
2022/08/22 11:18:23;;;;;;;1.13;0.40;;;29.30;77.90;;;;;;10253544;28;20055;-68
2022/08/22 11:23:36;;;;;;;1.25;0.52;;;28.90;74.20;;;;;;10236260;28;20050;-68
2022/08/22 11:28:58;;;;;;;1.02;0.38;;;29.30;75.10;;;;;;10253353;28;20051;-67
2022/08/22 11:34:33;;;;;;;3.67;0.50;;;29.20;73.90;;;;;;10253541;28;20040;-66
2022/08/22 11:40:15;;;;;;;3.53;0.40;;;29.40;74.30;;;;;;10261355;28;20055;-67
2022/08/22 11:45:22;;;;;;;1.17;0.40;;;29.50;71.60;;;;;;10254357;28;20039;-67
2022/08/22 11:50:43;;;;;;;0.77;0.40;;;29.60;72.20;;;;;;10236582;28;20051;-67
2022/08/22 11:56:16;;;;;;;1.38;0.40;;;29.40;68.90;;;;;;10251476;28;20051;-67
2022/08/22 12:01:26;;;;;;;5.43;0.40;;;29.80;71.80;;;;;;10244412;28;20047;-65
2022/08/22 12:06:47;;;;;;;2.45;0.50;;;29.60;68.70;;;;;;10252943;28;20050;-64
2022/08/22 12:12:34;;;;;;;4.10;0.40;;;29.80;67.50;;;;;;10239849;28;20078;-65
2022/08/22 12:17:54;;;;;;;;;;;30.20;70.50;;;;;;10251086;28;20051;-65
2022/08/22 12:23:25;;;;;;;5.50;0.50;;;30.30;68.60;;;;;;10261187;28;19966;-65
2022/08/22 12:29:12;;;;;;;0.50;0.30;;;30.30;66.50;;;;;;10253003;28;20122;-65
2022/08/22 12:34:35;;;;;;;2.40;0.30;;;30.80;67.80;;;;;;10229431;28;20063;-65
2022/08/22 12:40:02;;;;;;;2.33;0.30;;;30.50;63.80;;;;;;10255307;28;20134;-66
2022/08/22 12:45:07;;;;;;;1.63;0.55;;;30.80;65.70;;;;;;10245668;28;20057;-67
2022/08/22 12:50:18;;;;;;;1.88;0.40;;;31.30;62.80;;;;;;10246030;28;20118;-62
2022/08/22 12:55:27;;;;;;;1.73;0.30;;;31.50;63.50;;;;;;10254205;28;20047;-62
2022/08/22 13:00:39;;;;;;;1.35;0.70;;;32.50;61.80;;;;;;10241295;28;20042;-63
2022/08/22 13:05:46;;;;;;;1.10;0.30;;;33.30;59.10;;;;;;10247657;28;20177;-62
2022/08/22 13:11:21;;;;;;;0.63;0.30;;;34.00;59.40;;;;;;10263632;28;20057;-63
2022/08/22 13:16:35;;;;;;;1.25;0.30;;;34.70;57.80;;;;;;10294152;28;20104;-63
2022/08/22 13:21:45;;;;;;;0.70;0.35;;;35.40;56.10;;;;;;10274047;28;20113;-63
2022/08/22 13:27:00;;;;;;;1.10;0.20;;;35.40;53.90;;;;;;10283057;28;20057;-63
2022/08/22 13:32:03;;;;;;;2.28;0.30;;;35.30;54.60;;;;;;10264185;28;20050;-63
2022/08/22 13:37:10;;;;;;;2.67;0.30;;;35.00;53.10;;;;;;10271656;28;20039;-63
2022/08/22 13:42:21;;;;;;;1.35;0.30;;;34.70;54.40;;;;;;10278735;28;20050;-63
2022/08/22 13:47:44;;;;;;;0.88;0.30;;;34.80;53.80;;;;;;10282366;28;20050;-63
2022/08/22 13:53:05;;;;;;;1.48;0.30;;;35.70;53.30;;;;;;10294231;28;20058;-62
2022/08/22 13:58:30;;;;;;;0.77;0.50;;;35.90;51.40;;;;;;10296802;28;20146;-63
2022/08/22 14:03:48;;;;;;;0.93;0.30;;;36.20;51.60;;;;;;10284750;28;20050;-63
2022/08/22 14:08:55;;;;;;;3.10;0.30;;;36.40;50.60;;;;;;10284492;28;20053;-63
2022/08/22 14:14:04;;;;;;;6.80;0.40;;;36.30;51.00;;;;;;10236634;28;20054;-62
2022/08/22 14:19:31;;;;;;;0.80;0.30;;;36.30;50.30;;;;;;10261676;28;20067;-63
2022/08/22 14:24:57;;;;;;;7.63;0.55;;;35.70;50.50;;;;;;10254988;28;20103;-63
2022/08/22 14:30:12;;;;;;;1.98;0.20;;;34.70;49.50;;;;;;10258402;28;20043;-63
2022/08/22 14:35:30;;;;;;;2.42;0.40;;;34.50;49.10;;;;;;10248742;28;20051;-63
2022/08/22 14:40:39;;;;;;;0.90;0.30;;;33.20;49.80;;;;;;10244610;28;20130;-63
2022/08/22 14:45:53;;;;;;;0.68;0.35;;;33.30;50.30;;;;;;10257784;28;20046;-63
2022/08/22 14:50:57;;;;;;;0.90;0.28;;;33.80;51.00;;;;;;10256812;28;20501;-62
2022/08/22 14:56:14;;;;;;;3.65;0.40;;;33.20;51.30;;;;;;10261004;28;20058;-63
2022/08/22 15:01:21;;;;;;;4.40;0.93;;;33.30;52.40;;;;;;10255105;28;20039;-63
2022/08/22 15:06:39;;;;;;;3.22;0.40;;;33.30;53.00;;;;;;10255933;28;20079;-62
2022/08/22 15:11:49;;;;;;;1.58;0.30;;;32.90;51.60;;;;;;10263944;28;20063;-63
2022/08/22 15:16:58;;;;;;;0.40;0.35;;;32.70;52.40;;;;;;10256397;28;20059;-62
2022/08/22 15:22:09;;;;;;;2.20;0.30;;;33.10;52.40;;;;;;10256825;28;20051;-62
2022/08/22 15:27:18;;;;;;;0.75;0.30;;;33.70;51.70;;;;;;10237185;28;20060;-62
2022/08/22 15:32:27;;;;;;;0.70;0.40;;;33.50;51.70;;;;;;10255205;28;20474;-63
2022/08/22 15:37:32;;;;;;;1.83;0.47;;;33.40;51.70;;;;;;10261119;28;20058;-63
2022/08/22 15:42:49;;;;;;;1.05;0.30;;;33.30;51.80;;;;;;10249929;28;20098;-62
2022/08/22 15:47:52;;;;;;;7.25;0.50;;;32.50;51.40;;;;;;10244900;28;20055;-62
2022/08/22 15:53:16;;;;;;;1.52;0.32;;;32.60;52.40;;;;;;10232609;28;20066;-62
2022/08/22 15:58:22;;;;;;;4.28;1.10;;;32.40;51.70;;;;;;10230109;28;20508;-62
2022/08/22 16:03:30;;;;;;;0.28;0.20;;;32.20;50.90;;;;;;10236175;28;20051;-62
2022/08/22 16:08:35;;;;;;;2.00;0.30;;;31.90;51.50;;;;;;10248885;28;20809;-61
2022/08/22 16:13:40;;;;;;;0.43;0.35;;;31.60;51.80;;;;;;10250393;28;20062;-61
2022/08/22 16:18:42;;;;;;;1.48;0.30;;;31.70;52.30;;;;;;10253956;28;20108;-62
2022/08/22 16:23:50;;;;;;;0.80;0.30;;;31.20;51.50;;;;;;10253884;28;20051;-67
2022/08/22 16:29:12;;;;;;;0.63;0.30;;;31.00;52.60;;;;;;10251873;28;20062;-62
2022/08/22 16:34:37;;;;;;;2.15;0.50;;;30.90;53.60;;;;;;10245754;28;20058;-62
2022/08/22 16:40:06;;;;;;;1.98;0.40;;;30.70;53.30;;;;;;10249713;28;20083;-62
2022/08/22 16:45:35;;;;;;;1.10;0.40;;;30.50;53.80;;;;;;10242737;28;20514;-62
2022/08/22 16:50:39;;;;;;;1.95;0.52;;;30.20;54.30;;;;;;10246911;28;20055;-62
2022/08/22 16:56:08;;;;;;;1.30;0.40;;;30.10;55.20;;;;;;10248983;28;20059;-61
2022/08/22 17:01:33;;;;;;;0.77;0.57;;;29.80;56.80;;;;;;10240053;28;20493;-63
2022/08/22 17:07:01;;;;;;;0.90;0.35;;;29.80;56.20;;;;;;10246650;28;20426;-62
2022/08/22 17:12:28;;;;;;;0.77;0.30;;;29.80;57.60;;;;;;10260306;28;20484;-62
2022/08/22 17:17:47;;;;;;;2.53;0.65;;;29.80;58.10;;;;;;10256333;28;20088;-63
2022/08/22 17:22:58;;;;;;;0.93;0.40;;;29.90;57.60;;;;;;10256208;28;20059;-62
2022/08/22 17:28:18;;;;;;;0.93;0.40;;;29.70;57.20;;;;;;10253627;28;20397;-62
2022/08/22 17:33:51;;;;;;;2.33;0.40;;;29.60;56.80;;;;;;10244997;28;20051;-62
2022/08/22 17:39:16;;;;;;;1.70;0.50;;;29.30;57.60;;;;;;10247463;28;20055;-63
2022/08/22 17:44:27;;;;;;;1.27;0.55;;;29.00;57.70;;;;;;10251371;28;20058;-62
2022/08/22 17:49:40;;;;;;;1.02;0.40;;;28.80;59.10;;;;;;10234895;28;20746;-62
2022/08/22 17:54:51;;;;;;;4.22;0.60;;;28.60;59.40;;;;;;10249172;28;20048;-69
2022/08/22 18:00:11;;;;;;;1.15;0.55;;;28.30;59.00;;;;;;10244166;28;20055;-69
2022/08/22 18:05:32;;;;;;;4.30;0.70;;;28.10;60.40;;;;;;10238189;28;20046;-68
2022/08/22 18:10:52;;;;;;;4.30;0.47;;;27.80;62.00;;;;;;10255719;28;20047;-69
2022/08/22 18:15:59;;;;;;;3.50;0.82;;;27.50;62.30;;;;;;10249132;28;20088;-69
2022/08/22 18:21:19;;;;;;;5.68;0.80;;;27.20;64.70;;;;;;10249752;28;20054;-69
2022/08/22 18:26:40;;;;;;;4.60;0.40;;;26.90;63.80;;;;;;10248130;28;20474;-70
2022/08/22 18:32:03;;;;;;;3.30;0.60;;;26.70;65.80;;;;;;10249418;28;20054;-69
2022/08/22 18:37:11;;;;;;;5.32;0.70;;;26.30;67.10;;;;;;10253397;28;20058;-68
2022/08/22 18:42:50;;;;;;;2.50;0.70;;;26.10;68.10;;;;;;10242167;28;20055;-68
2022/08/22 18:47:54;;;;;;;5.18;0.70;;;25.80;69.00;;;;;;10233286;28;20102;-69
2022/08/22 18:52:58;;;;;;;4.25;1.23;;;25.60;70.20;;;;;;10253449;28;20051;-69
2022/08/22 18:58:12;;;;;;;5.32;1.00;;;25.30;70.50;;;;;;10255026;28;20617;-68
2022/08/22 19:03:51;;;;;;;2.58;0.70;;;25.20;70.70;;;;;;10260762;28;20540;-66
2022/08/22 19:09:31;;;;;;;2.65;0.70;;;25.00;72.30;;;;;;10261144;28;20101;-67
2022/08/22 19:14:51;;;;;;;3.05;0.50;;;24.80;73.00;;;;;;10254142;28;20047;-67
2022/08/22 19:26:19;;;;;;;1.52;0.85;;;24.50;73.40;;;;;;10256412;28;20097;-66
2022/08/22 19:31:36;;;;;;;1.40;0.70;;;24.30;73.20;;;;;;10254132;28;20058;-66
2022/08/22 19:36:38;;;;;;;3.35;0.57;;;24.20;73.40;;;;;;10251668;28;20051;-65
2022/08/22 19:41:49;;;;;;;4.45;0.57;;;24.10;74.00;;;;;;10259091;28;20062;-65
2022/08/22 19:47:20;;;;;;;4.97;0.73;;;24.00;74.10;;;;;;10247410;28;20121;-64
2022/08/22 19:52:55;;;;;;;3.75;0.80;;;23.80;74.10;;;;;;10253044;28;20102;-65
2022/08/22 19:58:17;;;;;;;1.52;0.52;;;23.80;74.20;;;;;;10257904;28;20485;-65
2022/08/22 20:04:07;;;;;;;1.33;0.50;;;23.70;73.80;;;;;;10255623;28;20134;-65
2022/08/22 20:09:28;;;;;;;;;;;23.60;74.90;;;;;;10245658;28;20425;-66
2022/08/22 20:14:33;;;;;;;1.65;0.70;;;23.50;74.80;;;;;;10282351;28;19926;-66
2022/08/22 20:19:52;;;;;;;2.03;0.40;;;23.50;74.90;;;;;;10277233;28;20067;-66
2022/08/22 20:25:19;;;;;;;1.55;0.50;;;23.30;75.20;;;;;;10287659;28;20106;-65
2022/08/22 20:30:42;;;;;;;;;;;23.20;76.40;;;;;;10201923;28;20170;-66
2022/08/22 20:35:52;;;;;;;3.00;0.70;;;23.20;76.30;;;;;;10202334;28;19923;-67
2022/08/22 20:41:09;;;;;;;3.15;0.50;;;23.20;77.00;;;;;;10212144;28;20106;-61
2022/08/22 20:46:42;;;;;;;1.42;0.65;;;23.10;77.00;;;;;;10227713;28;20093;-61
2022/08/22 20:52:06;;;;;;;1.15;0.63;;;23.10;78.40;;;;;;10295140;28;20045;-61
2022/08/22 20:57:18;;;;;;;2.05;0.50;;;23.10;78.20;;;;;;10291694;28;20042;-61
2022/08/22 21:02:39;;;;;;;3.05;0.50;;;23.00;78.40;;;;;;10284620;28;20548;-61
2022/08/22 21:07:44;;;;;;;3.10;0.80;;;22.90;78.60;;;;;;10287075;28;20458;-62
2022/08/22 21:13:19;;;;;;;1.73;0.60;;;22.90;79.00;;;;;;10263579;28;20588;-62
2022/08/22 21:18:42;;;;;;;1.77;0.60;;;22.80;78.80;;;;;;10247084;28;20075;-63
2022/08/22 21:23:56;;;;;;;0.90;0.50;;;22.80;79.50;;;;;;10247927;28;20482;-62
2022/08/22 21:29:22;;;;;;;5.65;0.43;;;22.80;79.40;;;;;;10253966;28;20050;-62
2022/08/22 21:34:41;;;;;;;1.58;0.47;;;22.80;79.40;;;;;;10253028;28;20506;-61
2022/08/22 21:39:47;;;;;;;4.63;1.00;;;22.80;80.60;;;;;;10246396;28;20047;-61
2022/08/22 21:45:28;;;;;;;1.38;0.40;;;22.80;78.10;;;;;;10249719;28;20070;-60
2022/08/22 21:50:36;;;;;;;2.40;0.50;;;22.80;76.90;;;;;;10236830;28;20050;-61
2022/08/22 21:55:43;;;;;;;4.32;0.40;;;22.80;76.90;;;;;;10250634;28;20051;-60
2022/08/22 22:01:01;;;;;;;1.15;0.38;;;22.80;76.10;;;;;;10241036;28;20051;-61
2022/08/22 22:06:05;;;;;;;1.15;0.43;;;22.70;76.00;;;;;;10246108;28;20118;-61
2022/08/22 22:11:13;;;;;;;2.15;0.40;;;22.60;76.70;;;;;;10258329;28;20054;-61
2022/08/22 22:16:25;;;;;;;2.00;0.43;;;22.50;77.10;;;;;;10291461;28;20129;-61
2022/08/22 22:21:27;;;;;;;1.30;0.40;;;22.60;77.80;;;;;;10283187;28;20536;-61
2022/08/22 22:26:30;;;;;;;2.20;0.68;;;22.50;77.50;;;;;;10281110;28;20047;-61
2022/08/22 22:31:31;;;;;;;5.25;0.40;;;22.40;77.30;;;;;;10292777;28;20112;-61
2022/08/22 22:36:34;;;;;;;3.50;1.05;;;22.40;77.20;;;;;;10299591;28;20058;-60
2022/08/22 22:41:36;;;;;;;1.55;0.40;;;22.40;77.50;;;;;;10291752;28;20047;-60
2022/08/22 22:46:38;;;;;;;1.80;0.50;;;22.40;77.80;;;;;;10291048;28;20429;-61
2022/08/22 22:51:40;;;;;;;10.35;0.50;;;22.40;78.30;;;;;;10291892;28;20090;-61
2022/08/22 22:56:41;;;;;;;1.65;0.50;;;22.30;78.40;;;;;;10294876;28;20043;-60
2022/08/22 23:02:05;;;;;;;1.48;0.40;;;22.30;79.60;;;;;;10293201;28;20058;-60
2022/08/22 23:07:12;;;;;;;0.70;0.40;;;22.20;79.20;;;;;;10291064;28;20054;-60
2022/08/22 23:12:15;;;;;;;2.28;0.43;;;22.10;79.80;;;;;;10279497;28;20065;-60
2022/08/22 23:17:18;;;;;;;0.90;0.40;;;22.00;80.00;;;;;;10292599;28;20043;-60
2022/08/22 23:22:20;;;;;;;4.22;0.40;;;21.80;80.30;;;;;;10294511;28;20096;-61
2022/08/22 23:27:21;;;;;;;0.95;0.40;;;21.70;80.90;;;;;;10297395;28;20116;-61
2022/08/22 23:32:23;;;;;;;1.00;0.40;;;21.60;81.80;;;;;;10295728;28;20042;-61
2022/08/22 23:37:25;;;;;;;2.70;0.50;;;21.60;81.70;;;;;;10285322;28;20058;-60
2022/08/22 23:42:28;;;;;;;2.10;0.30;;;21.50;83.10;;;;;;10287603;28;20043;-61
2022/08/22 23:47:29;;;;;;;3.45;0.55;;;21.30;82.50;;;;;;10282334;28;20085;-61
2022/08/22 23:52:31;;;;;;;1.65;0.40;;;21.30;82.80;;;;;;10292607;28;20093;-61
2022/08/22 23:57:33;;;;;;;1.67;0.50;;;21.10;83.10;;;;;;10291848;28;20093;-61
